sensor_id;sensor_type;location;lat;lon;timestamp;pressure;altitude;pressure_sealevel;temperature;humidity
79236;BME280;69062;47.460;18.812;2023-04-06T00:00:07;100468.91;;;-0.35;61.92
79236;BME280;69062;47.460;18.812;2023-04-06T00:01:10;100468.91;;;-0.34;62.50
79236;BME280;69062;47.460;18.812;2023-04-06T00:02:12;100453.31;;;-0.38;62.45
79236;BME280;69062;47.460;18.812;2023-04-06T00:03:13;100465.44;;;-0.46;62.50
79236;BME280;69062;47.460;18.812;2023-04-06T00:04:14;100457.66;;;-0.46;63.04
79236;BME280;69062;47.460;18.812;2023-04-06T00:05:16;100464.59;;;-0.36;63.22
79236;BME280;69062;47.460;18.812;2023-04-06T00:06:17;100460.25;;;-0.31;62.54
79236;BME280;69062;47.460;18.812;2023-04-06T00:07:19;100456.78;;;-0.33;62.20
79236;BME280;69062;47.460;18.812;2023-04-06T00:08:20;100464.59;;;-0.36;61.86
79236;BME280;69062;47.460;18.812;2023-04-06T00:09:22;100458.53;;;-0.35;61.90
79236;BME280;69062;47.460;18.812;2023-04-06T00:10:24;100465.44;;;-0.36;62.31
79236;BME280;69062;47.460;18.812;2023-04-06T00:11:26;100458.50;;;-0.40;62.68
79236;BME280;69062;47.460;18.812;2023-04-06T00:12:27;100464.56;;;-0.39;62.43
79236;BME280;69062;47.460;18.812;2023-04-06T00:13:29;100465.44;;;-0.43;62.81
79236;BME280;69062;47.460;18.812;2023-04-06T00:14:30;100456.78;;;-0.53;62.75
79236;BME280;69062;47.460;18.812;2023-04-06T00:15:32;100462.81;;;-0.52;62.71
79236;BME280;69062;47.460;18.812;2023-04-06T00:16:33;100458.53;;;-0.49;62.75
79236;BME280;69062;47.460;18.812;2023-04-06T00:17:35;100460.25;;;-0.49;62.89
79236;BME280;69062;47.460;18.812;2023-04-06T00:18:36;100462.84;;;-0.54;63.28
79236;BME280;69062;47.460;18.812;2023-04-06T00:19:38;100454.19;;;-0.59;63.64
79236;BME280;69062;47.460;18.812;2023-04-06T00:20:39;100451.63;;;-0.58;63.35
79236;BME280;69062;47.460;18.812;2023-04-06T00:21:41;100457.63;;;-0.60;63.68
79236;BME280;69062;47.460;18.812;2023-04-06T00:22:43;100461.09;;;-0.58;63.85
79236;BME280;69062;47.460;18.812;2023-04-06T00:23:45;100461.09;;;-0.58;63.72
79236;BME280;69062;47.460;18.812;2023-04-06T00:24:46;100448.13;;;-0.60;63.46
79236;BME280;69062;47.460;18.812;2023-04-06T00:25:47;100457.66;;;-0.62;63.26
79236;BME280;69062;47.460;18.812;2023-04-06T00:26:49;100455.06;;;-0.62;63.62
79236;BME280;69062;47.460;18.812;2023-04-06T00:27:50;100453.34;;;-0.63;63.93
79236;BME280;69062;47.460;18.812;2023-04-06T00:29:00;100453.31;;;-0.61;64.05
79236;BME280;69062;47.460;18.812;2023-04-06T00:30:05;100452.44;;;-0.68;64.65
79236;BME280;69062;47.460;18.812;2023-04-06T00:31:07;100452.44;;;-0.75;64.37
79236;BME280;69062;47.460;18.812;2023-04-06T00:32:08;100446.41;;;-0.76;64.51
79236;BME280;69062;47.460;18.812;2023-04-06T00:33:10;100453.31;;;-0.75;64.77
79236;BME280;69062;47.460;18.812;2023-04-06T00:34:11;100453.31;;;-0.67;64.82
79236;BME280;69062;47.460;18.812;2023-04-06T00:35:12;100455.06;;;-0.65;64.02
79236;BME280;69062;47.460;18.812;2023-04-06T00:36:14;100448.13;;;-0.66;63.34
79236;BME280;69062;47.460;18.812;2023-04-06T00:37:16;100450.72;;;-0.69;63.27
79236;BME280;69062;47.460;18.812;2023-04-06T00:38:19;100442.97;;;-0.72;63.24
79236;BME280;69062;47.460;18.812;2023-04-06T00:39:20;100448.16;;;-0.72;63.16
79236;BME280;69062;47.460;18.812;2023-04-06T00:40:22;100443.78;;;-0.73;63.21
79236;BME280;69062;47.460;18.812;2023-04-06T00:41:24;100438.59;;;-0.73;63.25
79236;BME280;69062;47.460;18.812;2023-04-06T00:42:26;100444.69;;;-0.72;63.03
79236;BME280;69062;47.460;18.812;2023-04-06T00:43:27;100441.22;;;-0.71;63.31
79236;BME280;69062;47.460;18.812;2023-04-06T00:44:29;100444.69;;;-0.72;63.34
79236;BME280;69062;47.460;18.812;2023-04-06T00:45:30;100434.31;;;-0.78;63.78
79236;BME280;69062;47.460;18.812;2023-04-06T00:46:32;100440.34;;;-0.78;63.83
79236;BME280;69062;47.460;18.812;2023-04-06T00:47:33;100436.03;;;-0.84;64.00
79236;BME280;69062;47.460;18.812;2023-04-06T00:48:35;100438.63;;;-0.84;64.32
79236;BME280;69062;47.460;18.812;2023-04-06T00:49:37;100442.94;;;-0.82;63.94
79236;BME280;69062;47.460;18.812;2023-04-06T00:50:38;100440.34;;;-0.84;65.31
79236;BME280;69062;47.460;18.812;2023-04-06T00:51:40;100437.75;;;-0.84;65.61
79236;BME280;69062;47.460;18.812;2023-04-06T00:52:41;100442.91;;;-0.87;66.00
79236;BME280;69062;47.460;18.812;2023-04-06T00:53:44;100440.31;;;-0.90;65.79
79236;BME280;69062;47.460;18.812;2023-04-06T00:54:49;100430.84;;;-0.93;66.49
79236;BME280;69062;47.460;18.812;2023-04-06T00:55:52;100441.22;;;-0.84;66.62
79236;BME280;69062;47.460;18.812;2023-04-06T00:56:54;100437.75;;;-0.86;65.98
79236;BME280;69062;47.460;18.812;2023-04-06T00:57:58;100432.56;;;-0.92;65.74
79236;BME280;69062;47.460;18.812;2023-04-06T00:59:02;100443.78;;;-0.93;66.02
79236;BME280;69062;47.460;18.812;2023-04-06T01:00:04;100436.00;;;-1.05;65.86
79236;BME280;69062;47.460;18.812;2023-04-06T01:01:06;100442.91;;;-0.99;65.51
79236;BME280;69062;47.460;18.812;2023-04-06T01:02:09;100445.50;;;-0.95;65.13
79236;BME280;69062;47.460;18.812;2023-04-06T01:03:17;100445.50;;;-0.96;65.59
79236;BME280;69062;47.460;18.812;2023-04-06T01:04:18;100442.91;;;-1.01;65.58
79236;BME280;69062;47.460;18.812;2023-04-06T01:05:20;100438.59;;;-1.00;66.17
79236;BME280;69062;47.460;18.812;2023-04-06T01:06:26;100438.56;;;-1.02;66.13
79236;BME280;69062;47.460;18.812;2023-04-06T01:07:33;100441.16;;;-1.11;65.96
79236;BME280;69062;47.460;18.812;2023-04-06T01:08:40;100444.59;;;-1.11;66.10
79236;BME280;69062;47.460;18.812;2023-04-06T01:09:55;100437.69;;;-1.10;66.56
79236;BME280;69062;47.460;18.812;2023-04-06T01:11:00;100445.47;;;-1.02;66.74
79236;BME280;69062;47.460;18.812;2023-04-06T01:12:04;100441.16;;;-1.14;66.83
79236;BME280;69062;47.460;18.812;2023-04-06T01:13:07;100438.56;;;-1.09;65.93
79236;BME280;69062;47.460;18.812;2023-04-06T01:14:19;100442.06;;;-1.01;66.64
79236;BME280;69062;47.460;18.812;2023-04-06T01:15:28;100448.94;;;-1.02;66.45
79236;BME280;69062;47.460;18.812;2023-04-06T01:16:30;100448.09;;;-1.01;66.00
79236;BME280;69062;47.460;18.812;2023-04-06T01:17:38;100439.44;;;-1.03;65.60
79236;BME280;69062;47.460;18.812;2023-04-06T01:18:45;100444.63;;;-0.97;65.03
79236;BME280;69062;47.460;18.812;2023-04-06T01:19:51;100442.91;;;-1.04;66.08
79236;BME280;69062;47.460;18.812;2023-04-06T01:21:00;100446.34;;;-0.96;65.16
79236;BME280;69062;47.460;18.812;2023-04-06T01:22:03;100442.03;;;-0.95;66.05
79236;BME280;69062;47.460;18.812;2023-04-06T01:23:07;100442.91;;;-0.95;65.42
79236;BME280;69062;47.460;18.812;2023-04-06T01:24:10;100446.38;;;-0.93;65.35
79236;BME280;69062;47.460;18.812;2023-04-06T01:25:38;100448.94;;;-1.02;65.31
79236;BME280;69062;47.460;18.812;2023-04-06T01:26:44;100442.03;;;-1.03;65.18
79236;BME280;69062;47.460;18.812;2023-04-06T01:27:46;100444.59;;;-1.11;65.03
79236;BME280;69062;47.460;18.812;2023-04-06T01:28:47;100446.34;;;-1.11;65.32
79236;BME280;69062;47.460;18.812;2023-04-06T01:30:00;100442.00;;;-1.09;65.91
79236;BME280;69062;47.460;18.812;2023-04-06T01:31:24;100435.97;;;-1.16;65.54
79236;BME280;69062;47.460;18.812;2023-04-06T01:32:27;100446.31;;;-1.17;65.91
79236;BME280;69062;47.460;18.812;2023-04-06T01:33:28;100445.44;;;-1.24;66.30
79236;BME280;69062;47.460;18.812;2023-04-06T01:34:35;100440.25;;;-1.24;66.61
79236;BME280;69062;47.460;18.812;2023-04-06T01:35:39;100435.94;;;-1.20;67.03
79236;BME280;69062;47.460;18.812;2023-04-06T01:36:52;100437.66;;;-1.25;66.83
79236;BME280;69062;47.460;18.812;2023-04-06T01:38:00;100438.53;;;-1.22;66.80
79236;BME280;69062;47.460;18.812;2023-04-06T01:39:06;100440.25;;;-1.25;66.24
79236;BME280;69062;47.460;18.812;2023-04-06T01:40:11;100434.19;;;-1.24;66.51
79236;BME280;69062;47.460;18.812;2023-04-06T01:41:21;100434.22;;;-1.27;66.60
79236;BME280;69062;47.460;18.812;2023-04-06T01:42:26;100433.31;;;-1.31;66.45
79236;BME280;69062;47.460;18.812;2023-04-06T01:43:27;100434.19;;;-1.35;66.46
79236;BME280;69062;47.460;18.812;2023-04-06T01:44:43;100428.97;;;-1.40;66.56
79236;BME280;69062;47.460;18.812;2023-04-06T01:45:48;100437.63;;;-1.39;67.52
79236;BME280;69062;47.460;18.812;2023-04-06T01:46:54;100433.31;;;-1.34;67.35
79236;BME280;69062;47.460;18.812;2023-04-06T01:47:57;100426.41;;;-1.33;67.65
79236;BME280;69062;47.460;18.812;2023-04-06T01:49:00;100424.69;;;-1.37;67.32
79236;BME280;69062;47.460;18.812;2023-04-06T01:50:09;100432.47;;;-1.36;67.11
79236;BME280;69062;47.460;18.812;2023-04-06T01:51:15;100421.22;;;-1.38;66.85
79236;BME280;69062;47.460;18.812;2023-04-06T01:52:30;100428.13;;;-1.43;67.31
79236;BME280;69062;47.460;18.812;2023-04-06T01:53:32;100424.66;;;-1.42;67.23
79236;BME280;69062;47.460;18.812;2023-04-06T01:54:38;100423.78;;;-1.46;67.45
79236;BME280;69062;47.460;18.812;2023-04-06T01:55:40;100423.81;;;-1.40;67.06
79236;BME280;69062;47.460;18.812;2023-04-06T01:57:01;100422.06;;;-1.41;67.46
79236;BME280;69062;47.460;18.812;2023-04-06T01:58:29;100418.59;;;-1.46;66.84
79236;BME280;69062;47.460;18.812;2023-04-06T01:59:31;100419.47;;;-1.48;66.87
79236;BME280;69062;47.460;18.812;2023-04-06T02:00:34;100414.28;;;-1.48;66.40
79236;BME280;69062;47.460;18.812;2023-04-06T02:01:36;100420.31;;;-1.46;66.73
79236;BME280;69062;47.460;18.812;2023-04-06T02:02:38;100423.78;;;-1.46;66.81
79236;BME280;69062;47.460;18.812;2023-04-06T02:03:44;100414.28;;;-1.48;67.00
79236;BME280;69062;47.460;18.812;2023-04-06T02:04:46;100422.94;;;-1.43;67.15
79236;BME280;69062;47.460;18.812;2023-04-06T02:05:49;100415.19;;;-1.37;66.89
79236;BME280;69062;47.460;18.812;2023-04-06T02:07:01;100422.09;;;-1.33;65.77
79236;BME280;69062;47.460;18.812;2023-04-06T02:08:05;100412.63;;;-1.29;65.26
79236;BME280;69062;47.460;18.812;2023-04-06T02:09:09;100414.34;;;-1.30;64.99
79236;BME280;69062;47.460;18.812;2023-04-06T02:10:12;100417.78;;;-1.34;66.37
79236;BME280;69062;47.460;18.812;2023-04-06T02:11:14;100412.59;;;-1.35;66.24
79236;BME280;69062;47.460;18.812;2023-04-06T02:12:21;100413.47;;;-1.36;66.13
79236;BME280;69062;47.460;18.812;2023-04-06T02:13:23;100414.31;;;-1.33;66.53
79236;BME280;69062;47.460;18.812;2023-04-06T02:14:27;100422.09;;;-1.36;66.19
79236;BME280;69062;47.460;18.812;2023-04-06T02:15:32;100416.03;;;-1.32;66.57
79236;BME280;69062;47.460;18.812;2023-04-06T02:16:33;100422.97;;;-1.28;65.69
79236;BME280;69062;47.460;18.812;2023-04-06T02:17:35;100410.88;;;-1.35;66.21
79236;BME280;69062;47.460;18.812;2023-04-06T02:18:36;100418.63;;;-1.40;66.26
79236;BME280;69062;47.460;18.812;2023-04-06T02:19:38;100410.00;;;-1.37;66.49
79236;BME280;69062;47.460;18.812;2023-04-06T02:20:40;100411.72;;;-1.41;66.77
79236;BME280;69062;47.460;18.812;2023-04-06T02:21:41;100409.97;;;-1.39;66.84
79236;BME280;69062;47.460;18.812;2023-04-06T02:22:43;100407.41;;;-1.40;66.79
79236;BME280;69062;47.460;18.812;2023-04-06T02:23:44;100403.94;;;-1.39;67.21
79236;BME280;69062;47.460;18.812;2023-04-06T02:24:46;100406.56;;;-1.37;66.88
79236;BME280;69062;47.460;18.812;2023-04-06T02:25:47;100410.00;;;-1.43;66.30
79236;BME280;69062;47.460;18.812;2023-04-06T02:26:49;100405.69;;;-1.44;66.18
79236;BME280;69062;47.460;18.812;2023-04-06T02:27:51;100405.66;;;-1.47;66.71
79236;BME280;69062;47.460;18.812;2023-04-06T02:28:52;100403.94;;;-1.51;66.06
79236;BME280;69062;47.460;18.812;2023-04-06T02:29:53;100403.03;;;-1.55;66.95
79236;BME280;69062;47.460;18.812;2023-04-06T02:30:55;100404.75;;;-1.58;66.89
79236;BME280;69062;47.460;18.812;2023-04-06T02:32:01;100400.41;;;-1.62;66.62
79236;BME280;69062;47.460;18.812;2023-04-06T02:33:04;100399.56;;;-1.63;67.07
79236;BME280;69062;47.460;18.812;2023-04-06T02:34:13;100401.28;;;-1.62;67.33
79236;BME280;69062;47.460;18.812;2023-04-06T02:35:22;100408.19;;;-1.64;67.35
79236;BME280;69062;47.460;18.812;2023-04-06T02:36:28;100397.00;;;-1.57;66.64
79236;BME280;69062;47.460;18.812;2023-04-06T02:37:29;100396.97;;;-1.60;66.78
79236;BME280;69062;47.460;18.812;2023-04-06T02:38:31;100397.84;;;-1.64;66.55
79236;BME280;69062;47.460;18.812;2023-04-06T02:39:35;100392.63;;;-1.70;66.06
79236;BME280;69062;47.460;18.812;2023-04-06T02:40:40;100404.72;;;-1.64;66.53
79236;BME280;69062;47.460;18.812;2023-04-06T02:41:52;100394.38;;;-1.63;66.87
79236;BME280;69062;47.460;18.812;2023-04-06T02:42:57;100401.25;;;-1.70;66.66
79236;BME280;69062;47.460;18.812;2023-04-06T02:44:06;100396.94;;;-1.68;66.83
79236;BME280;69062;47.460;18.812;2023-04-06T02:45:17;100395.22;;;-1.70;66.68
79236;BME280;69062;47.460;18.812;2023-04-06T02:46:21;100397.81;;;-1.70;66.47
79236;BME280;69062;47.460;18.812;2023-04-06T02:47:23;100393.50;;;-1.70;66.72
79236;BME280;69062;47.460;18.812;2023-04-06T02:48:25;100401.25;;;-1.71;66.46
79236;BME280;69062;47.460;18.812;2023-04-06T02:49:28;100395.19;;;-1.75;67.18
79236;BME280;69062;47.460;18.812;2023-04-06T02:50:31;100395.22;;;-1.73;66.69
79236;BME280;69062;47.460;18.812;2023-04-06T02:51:36;100404.69;;;-1.75;67.32
79236;BME280;69062;47.460;18.812;2023-04-06T02:52:49;100398.59;;;-1.82;67.58
79236;BME280;69062;47.460;18.812;2023-04-06T02:53:51;100396.91;;;-1.80;67.08
79236;BME280;69062;47.460;18.812;2023-04-06T02:54:52;100400.31;;;-1.87;67.60
79236;BME280;69062;47.460;18.812;2023-04-06T02:56:00;100409.81;;;-1.83;67.22
79236;BME280;69062;47.460;18.812;2023-04-06T02:57:10;100406.38;;;-1.83;67.41
79236;BME280;69062;47.460;18.812;2023-04-06T02:58:16;100402.91;;;-1.82;67.40
79236;BME280;69062;47.460;18.812;2023-04-06T02:59:25;100402.91;;;-1.82;66.79
79236;BME280;69062;47.460;18.812;2023-04-06T03:00:37;100401.19;;;-1.85;66.73
79236;BME280;69062;47.460;18.812;2023-04-06T03:01:38;100401.22;;;-1.80;66.26
79236;BME280;69062;47.460;18.812;2023-04-06T03:02:40;100396.03;;;-1.79;67.01
79236;BME280;69062;47.460;18.812;2023-04-06T03:03:45;100394.31;;;-1.78;66.74
79236;BME280;69062;47.460;18.812;2023-04-06T03:04:54;100395.22;;;-1.73;66.79
79236;BME280;69062;47.460;18.812;2023-04-06T03:06:04;100396.94;;;-1.74;66.89
79236;BME280;69062;47.460;18.812;2023-04-06T03:07:06;100389.16;;;-1.69;66.76
79236;BME280;69062;47.460;18.812;2023-04-06T03:08:11;100390.94;;;-1.62;66.64
79236;BME280;69062;47.460;18.812;2023-04-06T03:09:17;100392.66;;;-1.59;66.81
79236;BME280;69062;47.460;18.812;2023-04-06T03:10:19;100390.06;;;-1.62;67.21
79236;BME280;69062;47.460;18.812;2023-04-06T03:11:22;100390.06;;;-1.64;66.61
79236;BME280;69062;47.460;18.812;2023-04-06T03:12:26;100388.34;;;-1.67;66.98
79236;BME280;69062;47.460;18.812;2023-04-06T03:13:45;100397.81;;;-1.67;66.73
79236;BME280;69062;47.460;18.812;2023-04-06T03:14:47;100393.50;;;-1.62;67.17
79236;BME280;69062;47.460;18.812;2023-04-06T03:15:48;100394.38;;;-1.63;67.72
79236;BME280;69062;47.460;18.812;2023-04-06T03:16:52;100399.56;;;-1.64;67.27
79236;BME280;69062;47.460;18.812;2023-04-06T03:17:57;100388.31;;;-1.68;66.71
79236;BME280;69062;47.460;18.812;2023-04-06T03:19:25;100393.50;;;-1.70;67.18
79236;BME280;69062;47.460;18.812;2023-04-06T03:20:26;100383.97;;;-1.77;67.44
79236;BME280;69062;47.460;18.812;2023-04-06T03:21:27;100394.28;;;-1.84;67.34
79236;BME280;69062;47.460;18.812;2023-04-06T03:22:29;100389.16;;;-1.80;67.63
79236;BME280;69062;47.460;18.812;2023-04-06T03:23:31;100396.06;;;-1.71;67.75
79236;BME280;69062;47.460;18.812;2023-04-06T03:24:35;100396.06;;;-1.68;68.54
79236;BME280;69062;47.460;18.812;2023-04-06T03:25:36;100389.16;;;-1.68;68.06
79236;BME280;69062;47.460;18.812;2023-04-06T03:26:40;100390.91;;;-1.73;68.56
79236;BME280;69062;47.460;18.812;2023-04-06T03:27:43;100393.50;;;-1.71;68.53
79236;BME280;69062;47.460;18.812;2023-04-06T03:28:47;100400.41;;;-1.65;68.25
79236;BME280;69062;47.460;18.812;2023-04-06T03:29:49;100390.94;;;-1.67;68.58
79236;BME280;69062;47.460;18.812;2023-04-06T03:30:56;100396.94;;;-1.71;68.93
79236;BME280;69062;47.460;18.812;2023-04-06T03:32:16;100397.81;;;-1.70;68.33
79236;BME280;69062;47.460;18.812;2023-04-06T03:33:17;100396.91;;;-1.75;68.68
79236;BME280;69062;47.460;18.812;2023-04-06T03:34:27;100396.94;;;-1.74;67.99
79236;BME280;69062;47.460;18.812;2023-04-06T03:35:28;100392.59;;;-1.76;68.18
79236;BME280;69062;47.460;18.812;2023-04-06T03:36:29;100393.44;;;-1.82;68.20
79236;BME280;69062;47.460;18.812;2023-04-06T03:37:32;100395.16;;;-1.87;68.71
79236;BME280;69062;47.460;18.812;2023-04-06T03:38:37;100402.88;;;-1.91;68.85
79236;BME280;69062;47.460;18.812;2023-04-06T03:39:44;100402.91;;;-1.82;69.95
79236;BME280;69062;47.460;18.812;2023-04-06T03:40:50;100400.31;;;-1.85;69.37
79236;BME280;69062;47.460;18.812;2023-04-06T03:41:56;100395.13;;;-1.90;69.83
79236;BME280;69062;47.460;18.812;2023-04-06T03:43:17;100397.72;;;-1.93;69.41
79236;BME280;69062;47.460;18.812;2023-04-06T03:44:19;100402.84;;;-1.96;69.78
79236;BME280;69062;47.460;18.812;2023-04-06T03:45:20;100405.44;;;-1.99;69.22
79236;BME280;69062;47.460;18.812;2023-04-06T03:46:25;100406.28;;;-1.99;69.62
79236;BME280;69062;47.460;18.812;2023-04-06T03:47:29;100401.13;;;-1.97;69.51
79236;BME280;69062;47.460;18.812;2023-04-06T03:48:34;100400.22;;;-2.05;69.80
79236;BME280;69062;47.460;18.812;2023-04-06T03:49:39;100391.59;;;-2.07;69.56
79236;BME280;69062;47.460;18.812;2023-04-06T03:50:42;100401.91;;;-2.10;70.14
79236;BME280;69062;47.460;18.812;2023-04-06T03:51:43;100399.34;;;-2.06;70.43
79236;BME280;69062;47.460;18.812;2023-04-06T03:52:44;100399.34;;;-2.07;69.98
79236;BME280;69062;47.460;18.812;2023-04-06T03:53:46;100388.06;;;-2.22;70.67
79236;BME280;69062;47.460;18.812;2023-04-06T03:54:48;100404.41;;;-2.26;70.77
79236;BME280;69062;47.460;18.812;2023-04-06T03:55:49;100407.03;;;-2.21;71.75
79236;BME280;69062;47.460;18.812;2023-04-06T03:56:51;100399.28;;;-2.18;71.21
79236;BME280;69062;47.460;18.812;2023-04-06T03:57:52;100408.75;;;-2.22;70.88
79236;BME280;69062;47.460;18.812;2023-04-06T03:58:54;100396.69;;;-2.23;71.08
79236;BME280;69062;47.460;18.812;2023-04-06T03:59:55;100401.88;;;-2.19;71.34
79236;BME280;69062;47.460;18.812;2023-04-06T04:01:00;100402.72;;;-2.17;71.25
79236;BME280;69062;47.460;18.812;2023-04-06T04:02:02;100402.72;;;-2.17;70.96
79236;BME280;69062;47.460;18.812;2023-04-06T04:03:04;100397.56;;;-2.17;71.31
79236;BME280;69062;47.460;18.812;2023-04-06T04:04:06;100397.56;;;-2.19;71.16
79236;BME280;69062;47.460;18.812;2023-04-06T04:05:07;100392.38;;;-2.17;71.13
79236;BME280;69062;47.460;18.812;2023-04-06T04:06:09;100395.88;;;-2.14;70.73
79236;BME280;69062;47.460;18.812;2023-04-06T04:07:10;100400.22;;;-2.10;70.20
79236;BME280;69062;47.460;18.812;2023-04-06T04:08:12;100402.81;;;-2.08;70.31
79236;BME280;69062;47.460;18.812;2023-04-06T04:09:13;100395.00;;;-2.11;70.25
79236;BME280;69062;47.460;18.812;2023-04-06T04:10:14;100392.41;;;-2.13;70.06
79236;BME280;69062;47.460;18.812;2023-04-06T04:11:16;100388.97;;;-2.10;70.51
79236;BME280;69062;47.460;18.812;2023-04-06T04:12:18;100396.78;;;-2.07;70.03
79236;BME280;69062;47.460;18.812;2023-04-06T04:13:19;100393.28;;;-2.12;69.75
79236;BME280;69062;47.460;18.812;2023-04-06T04:14:23;100391.56;;;-2.10;69.79
79236;BME280;69062;47.460;18.812;2023-04-06T04:15:25;100395.00;;;-2.14;69.95
79236;BME280;69062;47.460;18.812;2023-04-06T04:16:26;100395.88;;;-2.11;70.24
79236;BME280;69062;47.460;18.812;2023-04-06T04:17:28;100391.56;;;-2.16;69.80
79236;BME280;69062;47.460;18.812;2023-04-06T04:18:29;100393.28;;;-2.15;69.77
79236;BME280;69062;47.460;18.812;2023-04-06T04:19:30;100389.78;;;-2.17;70.20
79236;BME280;69062;47.460;18.812;2023-04-06T04:20:32;100399.31;;;-2.16;70.34
79236;BME280;69062;47.460;18.812;2023-04-06T04:21:42;100391.56;;;-2.16;70.27
79236;BME280;69062;47.460;18.812;2023-04-06T04:22:45;100398.41;;;-2.22;70.68
79236;BME280;69062;47.460;18.812;2023-04-06T04:23:46;100395.81;;;-2.23;70.62
79236;BME280;69062;47.460;18.812;2023-04-06T04:24:47;100399.28;;;-2.24;69.71
79236;BME280;69062;47.460;18.812;2023-04-06T04:25:49;100400.13;;;-2.24;70.75
79236;BME280;69062;47.460;18.812;2023-04-06T04:26:52;100397.50;;;-2.28;70.55
79236;BME280;69062;47.460;18.812;2023-04-06T04:27:54;100394.91;;;-2.30;70.30
79236;BME280;69062;47.460;18.812;2023-04-06T04:28:58;100396.63;;;-2.32;70.40
79236;BME280;69062;47.460;18.812;2023-04-06T04:29:59;100395.78;;;-2.31;69.76
79236;BME280;69062;47.460;18.812;2023-04-06T04:31:01;100399.19;;;-2.38;69.64
79236;BME280;69062;47.460;18.812;2023-04-06T04:32:06;100401.75;;;-2.36;69.96
79236;BME280;69062;47.460;18.812;2023-04-06T04:33:08;100404.34;;;-2.35;69.79
79236;BME280;69062;47.460;18.812;2023-04-06T04:34:09;100397.50;;;-2.28;70.82
79236;BME280;69062;47.460;18.812;2023-04-06T04:35:11;100403.53;;;-2.25;70.61
79236;BME280;69062;47.460;18.812;2023-04-06T04:36:16;100397.53;;;-2.24;70.72
79236;BME280;69062;47.460;18.812;2023-04-06T04:37:19;100401.84;;;-2.21;70.64
79236;BME280;69062;47.460;18.812;2023-04-06T04:38:25;100396.69;;;-2.19;70.30
79236;BME280;69062;47.460;18.812;2023-04-06T04:39:29;100402.72;;;-2.20;70.04
79236;BME280;69062;47.460;18.812;2023-04-06T04:40:38;100408.81;;;-2.14;70.14
79236;BME280;69062;47.460;18.812;2023-04-06T04:41:44;100401.03;;;-2.15;70.54
79236;BME280;69062;47.460;18.812;2023-04-06T04:42:47;100403.63;;;-2.15;70.53
79236;BME280;69062;47.460;18.812;2023-04-06T04:43:55;100405.31;;;-2.17;70.55
79236;BME280;69062;47.460;18.812;2023-04-06T04:44:59;100405.31;;;-2.17;70.77
79236;BME280;69062;47.460;18.812;2023-04-06T04:46:10;100403.63;;;-2.15;71.06
79236;BME280;69062;47.460;18.812;2023-04-06T04:47:14;100409.66;;;-2.10;70.67
79236;BME280;69062;47.460;18.812;2023-04-06T04:48:20;100399.31;;;-2.13;70.97
79236;BME280;69062;47.460;18.812;2023-04-06T04:49:28;100401.91;;;-2.15;70.95
79236;BME280;69062;47.460;18.812;2023-04-06T04:50:31;100401.94;;;-2.07;70.26
79236;BME280;69062;47.460;18.812;2023-04-06T04:51:33;100399.41;;;-2.01;70.64
79236;BME280;69062;47.460;18.812;2023-04-06T04:52:41;100397.66;;;-1.96;70.25
79236;BME280;69062;47.460;18.812;2023-04-06T04:53:52;100397.72;;;-1.91;70.34
79236;BME280;69062;47.460;18.812;2023-04-06T04:54:58;100395.97;;;-1.89;70.82
79236;BME280;69062;47.460;18.812;2023-04-06T04:56:03;100392.53;;;-1.88;70.58
79236;BME280;69062;47.460;18.812;2023-04-06T04:57:04;100393.41;;;-1.91;70.51
79236;BME280;69062;47.460;18.812;2023-04-06T04:58:16;100402.06;;;-1.87;70.46
79236;BME280;69062;47.460;18.812;2023-04-06T04:59:25;100395.13;;;-1.90;70.31
79236;BME280;69062;47.460;18.812;2023-04-06T05:00:38;100388.22;;;-1.91;70.58
79236;BME280;69062;47.460;18.812;2023-04-06T05:01:40;100376.19;;;-1.78;70.77
79236;BME280;69062;47.460;18.812;2023-04-06T05:02:41;100380.50;;;-1.77;70.37
79236;BME280;69062;47.460;18.812;2023-04-06T05:03:48;100375.34;;;-1.76;70.28
79236;BME280;69062;47.460;18.812;2023-04-06T05:04:51;100375.38;;;-1.68;70.12
79236;BME280;69062;47.460;18.812;2023-04-06T05:05:57;100367.63;;;-1.67;70.08
79236;BME280;69062;47.460;18.812;2023-04-06T05:07:07;100374.53;;;-1.65;70.00
79236;BME280;69062;47.460;18.812;2023-04-06T05:08:11;100372.81;;;-1.63;70.14
79236;BME280;69062;47.460;18.812;2023-04-06T05:09:17;100371.06;;;-1.61;69.77
79236;BME280;69062;47.460;18.812;2023-04-06T05:10:18;100373.66;;;-1.63;69.93
79236;BME280;69062;47.460;18.812;2023-04-06T05:11:32;100371.94;;;-1.64;70.02
79236;BME280;69062;47.460;18.812;2023-04-06T05:12:35;100377.13;;;-1.55;69.79
79236;BME280;69062;47.460;18.812;2023-04-06T05:13:42;100374.59;;;-1.40;70.15
79236;BME280;69062;47.460;18.812;2023-04-06T05:14:51;100372.84;;;-1.39;69.17
79236;BME280;69062;47.460;18.812;2023-04-06T05:15:54;100374.59;;;-1.41;69.15
79236;BME280;69062;47.460;18.812;2023-04-06T05:17:00;100369.41;;;-1.40;69.23
79236;BME280;69062;47.460;18.812;2023-04-06T05:18:01;100372.88;;;-1.33;69.07
79236;BME280;69062;47.460;18.812;2023-04-06T05:19:07;100375.50;;;-1.28;67.61
79236;BME280;69062;47.460;18.812;2023-04-06T05:20:15;100369.44;;;-1.24;68.04
79236;BME280;69062;47.460;18.812;2023-04-06T05:21:22;100369.47;;;-1.14;67.73
79236;BME280;69062;47.460;18.812;2023-04-06T05:22:31;100373.78;;;-1.14;66.85
79236;BME280;69062;47.460;18.812;2023-04-06T05:23:39;100373.78;;;-1.11;66.14
79236;BME280;69062;47.460;18.812;2023-04-06T05:24:41;100365.16;;;-1.08;66.51
79236;BME280;69062;47.460;18.812;2023-04-06T05:25:43;100366.88;;;-1.04;66.85
79236;BME280;69062;47.460;18.812;2023-04-06T05:26:52;100371.19;;;-1.06;66.43
79236;BME280;69062;47.460;18.812;2023-04-06T05:27:58;100365.16;;;-1.02;66.98
79236;BME280;69062;47.460;18.812;2023-04-06T05:29:11;100371.22;;;-0.93;66.46
79236;BME280;69062;47.460;18.812;2023-04-06T05:30:13;100368.59;;;-0.80;66.41
79236;BME280;69062;47.460;18.812;2023-04-06T05:31:19;100365.16;;;-0.81;66.15
79236;BME280;69062;47.460;18.812;2023-04-06T05:32:24;100362.59;;;-0.72;66.06